sensor_id;sensor_type;location;lat;lon;timestamp;temperature;humidity
76855;DHT22;66343;44.588;33.450;2023-07-28T00:00:00;21.43;82.18
76855;DHT22;66343;44.588;33.450;2023-07-28T00:02:41;21.39;80.30
76855;DHT22;66343;44.588;33.450;2023-07-28T00:05:10;21.38;81.31
76855;DHT22;66343;44.588;33.450;2023-07-28T00:07:42;21.36;80.36
76855;DHT22;66343;44.588;33.450;2023-07-28T00:10:14;21.38;80.59
76855;DHT22;66343;44.588;33.450;2023-07-28T00:12:44;21.38;80.52
76855;DHT22;66343;44.588;33.450;2023-07-28T00:15:17;21.40;79.53
76855;DHT22;66343;44.588;33.450;2023-07-28T00:17:58;21.42;79.45
76855;DHT22;66343;44.588;33.450;2023-07-28T00:20:33;21.42;80.70
76855;DHT22;66343;44.588;33.450;2023-07-28T00:23:03;21.45;80.17
76855;DHT22;66343;44.588;33.450;2023-07-28T00:25:32;21.43;79.43
76855;DHT22;66343;44.588;33.450;2023-07-28T00:28:04;21.34;81.07
76855;DHT22;66343;44.588;33.450;2023-07-28T00:30:41;21.18;81.28
76855;DHT22;66343;44.588;33.450;2023-07-28T00:33:16;21.02;82.08
76855;DHT22;66343;44.588;33.450;2023-07-28T00:35:45;20.89;83.74
76855;DHT22;66343;44.588;33.450;2023-07-28T00:38:17;20.85;83.71
76855;DHT22;66343;44.588;33.450;2023-07-28T00:40:46;20.84;82.78
76855;DHT22;66343;44.588;33.450;2023-07-28T00:43:18;20.85;80.91
76855;DHT22;66343;44.588;33.450;2023-07-28T00:45:53;20.86;80.76
76855;DHT22;66343;44.588;33.450;2023-07-28T00:48:23;20.86;81.61
76855;DHT22;66343;44.588;33.450;2023-07-28T00:50:58;20.85;80.23
76855;DHT22;66343;44.588;33.450;2023-07-28T00:53:30;20.84;79.72
76855;DHT22;66343;44.588;33.450;2023-07-28T00:56:06;20.81;80.04
76855;DHT22;66343;44.588;33.450;2023-07-28T00:58:37;20.81;80.31
76855;DHT22;66343;44.588;33.450;2023-07-28T01:01:16;20.80;81.26
76855;DHT22;66343;44.588;33.450;2023-07-28T01:03:52;20.76;81.10
76855;DHT22;66343;44.588;33.450;2023-07-28T01:06:44;20.70;80.91
76855;DHT22;66343;44.588;33.450;2023-07-28T01:09:20;20.73;82.46
76855;DHT22;66343;44.588;33.450;2023-07-28T01:11:58;20.77;81.97
76855;DHT22;66343;44.588;33.450;2023-07-28T01:14:33;20.76;81.86
76855;DHT22;66343;44.588;33.450;2023-07-28T01:17:02;20.75;82.34
76855;DHT22;66343;44.588;33.450;2023-07-28T01:19:40;20.64;81.40
76855;DHT22;66343;44.588;33.450;2023-07-28T01:22:36;20.54;82.54
76855;DHT22;66343;44.588;33.450;2023-07-28T01:27:58;20.42;81.33
76855;DHT22;66343;44.588;33.450;2023-07-28T01:30:32;20.41;80.49
76855;DHT22;66343;44.588;33.450;2023-07-28T01:33:06;20.39;81.87
76855;DHT22;66343;44.588;33.450;2023-07-28T01:35:41;20.37;81.47
76855;DHT22;66343;44.588;33.450;2023-07-28T01:38:14;20.36;80.40
76855;DHT22;66343;44.588;33.450;2023-07-28T01:40:50;20.34;80.65
76855;DHT22;66343;44.588;33.450;2023-07-28T01:43:22;20.35;80.12
76855;DHT22;66343;44.588;33.450;2023-07-28T01:45:53;20.36;80.88
76855;DHT22;66343;44.588;33.450;2023-07-28T01:48:22;20.32;81.46
76855;DHT22;66343;44.588;33.450;2023-07-28T01:50:51;20.32;80.62
76855;DHT22;66343;44.588;33.450;2023-07-28T01:53:24;20.27;79.72
76855;DHT22;66343;44.588;33.450;2023-07-28T01:56:03;20.22;82.12
76855;DHT22;66343;44.588;33.450;2023-07-28T01:58:36;20.13;81.73
76855;DHT22;66343;44.588;33.450;2023-07-28T02:01:05;20.01;82.68
76855;DHT22;66343;44.588;33.450;2023-07-28T02:03:37;20.02;82.17
76855;DHT22;66343;44.588;33.450;2023-07-28T02:06:11;19.99;83.26
76855;DHT22;66343;44.588;33.450;2023-07-28T02:08:41;20.02;83.39
76855;DHT22;66343;44.588;33.450;2023-07-28T02:11:17;20.03;83.11
76855;DHT22;66343;44.588;33.450;2023-07-28T02:13:47;20.10;81.82
76855;DHT22;66343;44.588;33.450;2023-07-28T02:16:19;20.14;80.38
76855;DHT22;66343;44.588;33.450;2023-07-28T02:18:48;20.15;80.75
76855;DHT22;66343;44.588;33.450;2023-07-28T02:21:19;20.14;80.87
76855;DHT22;66343;44.588;33.450;2023-07-28T02:23:52;20.06;78.64
76855;DHT22;66343;44.588;33.450;2023-07-28T02:26:26;20.03;80.07
76855;DHT22;66343;44.588;33.450;2023-07-28T02:29:03;20.02;79.56
76855;DHT22;66343;44.588;33.450;2023-07-28T02:31:37;20.04;80.04
76855;DHT22;66343;44.588;33.450;2023-07-28T02:34:08;20.14;80.62
76855;DHT22;66343;44.588;33.450;2023-07-28T02:36:38;20.20;79.72
76855;DHT22;66343;44.588;33.450;2023-07-28T02:39:11;20.20;79.16
76855;DHT22;66343;44.588;33.450;2023-07-28T02:41:42;20.31;78.42
76855;DHT22;66343;44.588;33.450;2023-07-28T02:44:16;20.40;77.95
76855;DHT22;66343;44.588;33.450;2023-07-28T02:46:45;20.45;76.73
76855;DHT22;66343;44.588;33.450;2023-07-28T02:49:15;20.46;76.15
76855;DHT22;66343;44.588;33.450;2023-07-28T02:51:44;20.48;74.31
76855;DHT22;66343;44.588;33.450;2023-07-28T02:54:15;20.45;73.64
76855;DHT22;66343;44.588;33.450;2023-07-28T02:56:54;20.50;75.40
76855;DHT22;66343;44.588;33.450;2023-07-28T02:59:26;20.60;74.95
76855;DHT22;66343;44.588;33.450;2023-07-28T03:01:58;20.65;73.07
76855;DHT22;66343;44.588;33.450;2023-07-28T03:04:31;20.68;74.41
76855;DHT22;66343;44.588;33.450;2023-07-28T03:07:18;20.74;74.79
76855;DHT22;66343;44.588;33.450;2023-07-28T03:09:54;20.73;75.56
76855;DHT22;66343;44.588;33.450;2023-07-28T03:12:29;20.75;74.23
76855;DHT22;66343;44.588;33.450;2023-07-28T03:15:03;20.73;74.22
76855;DHT22;66343;44.588;33.450;2023-07-28T03:17:33;20.75;72.71
76855;DHT22;66343;44.588;33.450;2023-07-28T03:20:12;20.75;73.82
76855;DHT22;66343;44.588;33.450;2023-07-28T03:22:44;20.77;73.68
76855;DHT22;66343;44.588;33.450;2023-07-28T03:25:16;20.75;72.54
76855;DHT22;66343;44.588;33.450;2023-07-28T03:27:46;20.74;72.76
76855;DHT22;66343;44.588;33.450;2023-07-28T03:30:22;20.72;72.45
76855;DHT22;66343;44.588;33.450;2023-07-28T03:32:54;20.73;71.16
76855;DHT22;66343;44.588;33.450;2023-07-28T03:35:30;20.75;72.21
76855;DHT22;66343;44.588;33.450;2023-07-28T03:38:10;20.77;70.81
76855;DHT22;66343;44.588;33.450;2023-07-28T03:40:44;20.80;70.52
76855;DHT22;66343;44.588;33.450;2023-07-28T03:43:13;20.77;69.82
76855;DHT22;66343;44.588;33.450;2023-07-28T03:45:42;20.77;70.00
76855;DHT22;66343;44.588;33.450;2023-07-28T03:48:18;20.77;70.18
76855;DHT22;66343;44.588;33.450;2023-07-28T03:50:48;20.81;72.45
76855;DHT22;66343;44.588;33.450;2023-07-28T03:53:22;20.81;70.54
76855;DHT22;66343;44.588;33.450;2023-07-28T03:55:57;20.83;72.38
76855;DHT22;66343;44.588;33.450;2023-07-28T03:58:27;20.79;71.80
76855;DHT22;66343;44.588;33.450;2023-07-28T04:01:07;20.77;72.58
76855;DHT22;66343;44.588;33.450;2023-07-28T04:03:41;20.70;73.01
76855;DHT22;66343;44.588;33.450;2023-07-28T04:06:11;20.64;72.99
76855;DHT22;66343;44.588;33.450;2023-07-28T04:08:41;20.63;73.79
76855;DHT22;66343;44.588;33.450;2023-07-28T04:11:13;20.69;73.20
76855;DHT22;66343;44.588;33.450;2023-07-28T04:13:45;20.76;72.08
76855;DHT22;66343;44.588;33.450;2023-07-28T04:16:20;20.80;71.35
76855;DHT22;66343;44.588;33.450;2023-07-28T04:18:52;20.79;71.79
76855;DHT22;66343;44.588;33.450;2023-07-28T04:21:26;20.78;72.04
76855;DHT22;66343;44.588;33.450;2023-07-28T04:24:00;20.83;70.57
76855;DHT22;66343;44.588;33.450;2023-07-28T04:26:32;20.79;70.42
76855;DHT22;66343;44.588;33.450;2023-07-28T04:29:09;20.79;71.85
76855;DHT22;66343;44.588;33.450;2023-07-28T04:31:44;20.78;71.75
76855;DHT22;66343;44.588;33.450;2023-07-28T04:34:23;20.76;72.75
76855;DHT22;66343;44.588;33.450;2023-07-28T04:37:07;20.72;73.40
76855;DHT22;66343;44.588;33.450;2023-07-28T04:39:47;20.76;72.99
76855;DHT22;66343;44.588;33.450;2023-07-28T04:42:17;20.76;72.30
76855;DHT22;66343;44.588;33.450;2023-07-28T04:44:48;20.74;72.35
76855;DHT22;66343;44.588;33.450;2023-07-28T04:47:21;20.64;74.69
76855;DHT22;66343;44.588;33.450;2023-07-28T04:49:55;20.58;74.04
76855;DHT22;66343;44.588;33.450;2023-07-28T04:52:42;20.51;73.03
76855;DHT22;66343;44.588;33.450;2023-07-28T04:55:29;20.50;73.98
76855;DHT22;66343;44.588;33.450;2023-07-28T04:58:01;20.45;73.18
76855;DHT22;66343;44.588;33.450;2023-07-28T05:00:42;20.45;73.05
76855;DHT22;66343;44.588;33.450;2023-07-28T05:03:36;20.46;72.26
76855;DHT22;66343;44.588;33.450;2023-07-28T05:06:19;20.46;73.25
76855;DHT22;66343;44.588;33.450;2023-07-28T05:08:50;20.51;70.33
76855;DHT22;66343;44.588;33.450;2023-07-28T05:11:31;20.58;69.20
76855;DHT22;66343;44.588;33.450;2023-07-28T05:14:04;20.64;71.48
76855;DHT22;66343;44.588;33.450;2023-07-28T05:16:38;20.68;70.41
76855;DHT22;66343;44.588;33.450;2023-07-28T05:19:11;20.72;69.50
76855;DHT22;66343;44.588;33.450;2023-07-28T05:21:45;20.73;70.04
76855;DHT22;66343;44.588;33.450;2023-07-28T05:24:17;20.77;70.59
76855;DHT22;66343;44.588;33.450;2023-07-28T05:26:47;20.77;70.32
76855;DHT22;66343;44.588;33.450;2023-07-28T05:29:16;20.85;68.71
76855;DHT22;66343;44.588;33.450;2023-07-28T05:31:52;20.89;69.52
76855;DHT22;66343;44.588;33.450;2023-07-28T05:34:32;20.86;68.17
76855;DHT22;66343;44.588;33.450;2023-07-28T05:37:01;20.84;69.10
76855;DHT22;66343;44.588;33.450;2023-07-28T05:39:52;20.83;67.01
76855;DHT22;66343;44.588;33.450;2023-07-28T05:42:25;20.79;67.42
76855;DHT22;66343;44.588;33.450;2023-07-28T05:44:57;20.80;67.91
76855;DHT22;66343;44.588;33.450;2023-07-28T05:47:32;20.75;67.76
76855;DHT22;66343;44.588;33.450;2023-07-28T05:50:05;20.73;67.81
76855;DHT22;66343;44.588;33.450;2023-07-28T05:52:34;20.78;67.23
76855;DHT22;66343;44.588;33.450;2023-07-28T05:55:06;20.83;66.85
76855;DHT22;66343;44.588;33.450;2023-07-28T05:57:40;20.89;67.70
76855;DHT22;66343;44.588;33.450;2023-07-28T06:00:10;20.91;65.32
76855;DHT22;66343;44.588;33.450;2023-07-28T06:02:40;20.91;64.98
76855;DHT22;66343;44.588;33.450;2023-07-28T06:05:18;20.90;66.33
76855;DHT22;66343;44.588;33.450;2023-07-28T06:07:50;20.94;66.31
76855;DHT22;66343;44.588;33.450;2023-07-28T06:10:19;20.98;66.57
76855;DHT22;66343;44.588;33.450;2023-07-28T06:12:49;20.99;65.55
76855;DHT22;66343;44.588;33.450;2023-07-28T06:15:20;21.06;64.89
76855;DHT22;66343;44.588;33.450;2023-07-28T06:17:52;21.05;63.40
76855;DHT22;66343;44.588;33.450;2023-07-28T06:20:21;21.05;65.69
76855;DHT22;66343;44.588;33.450;2023-07-28T06:22:50;21.08;66.30
76855;DHT22;66343;44.588;33.450;2023-07-28T06:25:27;21.18;64.92
76855;DHT22;66343;44.588;33.450;2023-07-28T06:27:58;21.25;64.37
76855;DHT22;66343;44.588;33.450;2023-07-28T06:30:37;21.23;62.57
76855;DHT22;66343;44.588;33.450;2023-07-28T06:33:08;21.29;64.08
76855;DHT22;66343;44.588;33.450;2023-07-28T06:35:40;21.36;63.56
76855;DHT22;66343;44.588;33.450;2023-07-28T06:38:11;21.39;64.06
76855;DHT22;66343;44.588;33.450;2023-07-28T06:40:46;21.50;63.85
76855;DHT22;66343;44.588;33.450;2023-07-28T06:43:15;21.53;63.52
76855;DHT22;66343;44.588;33.450;2023-07-28T06:45:53;21.61;63.82
76855;DHT22;66343;44.588;33.450;2023-07-28T06:48:26;21.58;62.95
76855;DHT22;66343;44.588;33.450;2023-07-28T06:51:08;21.43;62.07
76855;DHT22;66343;44.588;33.450;2023-07-28T06:53:38;21.44;62.73
76855;DHT22;66343;44.588;33.450;2023-07-28T06:56:11;21.51;62.54
76855;DHT22;66343;44.588;33.450;2023-07-28T06:58:40;21.65;61.52
76855;DHT22;66343;44.588;33.450;2023-07-28T07:01:18;21.77;61.48
76855;DHT22;66343;44.588;33.450;2023-07-28T07:03:56;21.85;60.36
76855;DHT22;66343;44.588;33.450;2023-07-28T07:06:30;21.65;62.05
76855;DHT22;66343;44.588;33.450;2023-07-28T07:09:06;21.59;62.92
76855;DHT22;66343;44.588;33.450;2023-07-28T07:11:37;21.57;63.56
76855;DHT22;66343;44.588;33.450;2023-07-28T07:14:08;21.60;60.59
76855;DHT22;66343;44.588;33.450;2023-07-28T07:16:43;21.49;62.79
76855;DHT22;66343;44.588;33.450;2023-07-28T07:19:18;21.45;63.69
76855;DHT22;66343;44.588;33.450;2023-07-28T07:21:48;21.44;60.30
76855;DHT22;66343;44.588;33.450;2023-07-28T07:24:20;21.50;61.34
76855;DHT22;66343;44.588;33.450;2023-07-28T07:26:52;21.57;63.08
76855;DHT22;66343;44.588;33.450;2023-07-28T07:29:22;21.52;62.21
76855;DHT22;66343;44.588;33.450;2023-07-28T07:31:57;21.55;61.25
76855;DHT22;66343;44.588;33.450;2023-07-28T07:34:29;21.47;59.65
76855;DHT22;66343;44.588;33.450;2023-07-28T07:37:01;21.46;61.00
76855;DHT22;66343;44.588;33.450;2023-07-28T07:39:31;21.62;61.07
76855;DHT22;66343;44.588;33.450;2023-07-28T07:42:03;21.74;59.59
76855;DHT22;66343;44.588;33.450;2023-07-28T07:44:34;21.54;61.14
76855;DHT22;66343;44.588;33.450;2023-07-28T07:47:17;21.55;61.15
76855;DHT22;66343;44.588;33.450;2023-07-28T07:49:50;21.49;60.69
76855;DHT22;66343;44.588;33.450;2023-07-28T07:52:23;21.47;61.43
76855;DHT22;66343;44.588;33.450;2023-07-28T07:54:54;21.42;61.21
76855;DHT22;66343;44.588;33.450;2023-07-28T07:57:26;21.51;61.99
76855;DHT22;66343;44.588;33.450;2023-07-28T08:00:01;21.64;61.58
76855;DHT22;66343;44.588;33.450;2023-07-28T08:02:40;21.60;61.07
76855;DHT22;66343;44.588;33.450;2023-07-28T08:05:16;21.54;61.44
76855;DHT22;66343;44.588;33.450;2023-07-28T08:07:46;21.57;61.31
76855;DHT22;66343;44.588;33.450;2023-07-28T08:10:16;21.73;61.79
76855;DHT22;66343;44.588;33.450;2023-07-28T08:12:49;21.75;62.12
76855;DHT22;66343;44.588;33.450;2023-07-28T08:15:19;21.66;60.47
76855;DHT22;66343;44.588;33.450;2023-07-28T08:17:50;21.67;61.17
76855;DHT22;66343;44.588;33.450;2023-07-28T08:20:23;21.63;60.80
76855;DHT22;66343;44.588;33.450;2023-07-28T08:22:55;21.62;61.08
76855;DHT22;66343;44.588;33.450;2023-07-28T08:25:28;21.65;60.97
76855;DHT22;66343;44.588;33.450;2023-07-28T08:28:01;21.63;62.82
76855;DHT22;66343;44.588;33.450;2023-07-28T08:30:31;21.63;62.31
76855;DHT22;66343;44.588;33.450;2023-07-28T08:33:01;21.59;61.55
76855;DHT22;66343;44.588;33.450;2023-07-28T08:35:33;21.63;61.57
76855;DHT22;66343;44.588;33.450;2023-07-28T08:38:03;21.72;61.75
76855;DHT22;66343;44.588;33.450;2023-07-28T08:40:33;21.94;60.23
76855;DHT22;66343;44.588;33.450;2023-07-28T08:43:05;22.08;59.49
76855;DHT22;66343;44.588;33.450;2023-07-28T08:45:35;22.01;60.21
76855;DHT22;66343;44.588;33.450;2023-07-28T08:48:08;21.94;60.79
76855;DHT22;66343;44.588;33.450;2023-07-28T08:50:40;21.82;60.75
76855;DHT22;66343;44.588;33.450;2023-07-28T08:53:10;21.84;61.99
76855;DHT22;66343;44.588;33.450;2023-07-28T08:55:40;21.74;61.82
76855;DHT22;66343;44.588;33.450;2023-07-28T08:58:19;21.74;61.33
76855;DHT22;66343;44.588;33.450;2023-07-28T09:00:49;21.88;61.16
76855;DHT22;66343;44.588;33.450;2023-07-28T09:03:20;21.82;61.42
76855;DHT22;66343;44.588;33.450;2023-07-28T09:06:03;21.76;62.28
76855;DHT22;66343;44.588;33.450;2023-07-28T09:08:35;21.80;60.19
76855;DHT22;66343;44.588;33.450;2023-07-28T09:11:06;21.78;59.17
76855;DHT22;66343;44.588;33.450;2023-07-28T09:13:40;21.92;57.97
76855;DHT22;66343;44.588;33.450;2023-07-28T09:16:20;21.91;59.64
76855;DHT22;66343;44.588;33.450;2023-07-28T09:18:50;21.83;60.07
76855;DHT22;66343;44.588;33.450;2023-07-28T09:21:20;21.82;61.33
76855;DHT22;66343;44.588;33.450;2023-07-28T09:23:53;21.79;60.29
76855;DHT22;66343;44.588;33.450;2023-07-28T09:26:23;21.79;60.42
76855;DHT22;66343;44.588;33.450;2023-07-28T09:28:55;22.04;61.38
76855;DHT22;66343;44.588;33.450;2023-07-28T09:31:31;22.05;61.15
76855;DHT22;66343;44.588;33.450;2023-07-28T09:34:02;22.20;60.18
76855;DHT22;66343;44.588;33.450;2023-07-28T09:36:33;22.12;57.91
76855;DHT22;66343;44.588;33.450;2023-07-28T09:39:06;22.10;58.17
76855;DHT22;66343;44.588;33.450;2023-07-28T09:41:38;22.13;57.65
76855;DHT22;66343;44.588;33.450;2023-07-28T09:44:08;22.14;59.14
76855;DHT22;66343;44.588;33.450;2023-07-28T09:46:52;22.27;58.61
76855;DHT22;66343;44.588;33.450;2023-07-28T09:49:36;22.18;58.93
76855;DHT22;66343;44.588;33.450;2023-07-28T09:52:11;22.32;59.49
76855;DHT22;66343;44.588;33.450;2023-07-28T09:54:53;22.28;59.46
76855;DHT22;66343;44.588;33.450;2023-07-28T09:57:27;22.28;59.99
76855;DHT22;66343;44.588;33.450;2023-07-28T09:59:57;22.12;61.36
76855;DHT22;66343;44.588;33.450;2023-07-28T10:02:40;22.05;60.76
76855;DHT22;66343;44.588;33.450;2023-07-28T10:05:30;21.97;59.55
76855;DHT22;66343;44.588;33.450;2023-07-28T10:08:05;21.90;60.57
76855;DHT22;66343;44.588;33.450;2023-07-28T10:10:38;21.98;59.70
76855;DHT22;66343;44.588;33.450;2023-07-28T10:13:19;22.12;57.74
76855;DHT22;66343;44.588;33.450;2023-07-28T10:15:55;22.34;58.87
76855;DHT22;66343;44.588;33.450;2023-07-28T10:18:29;22.52;58.54
76855;DHT22;66343;44.588;33.450;2023-07-28T10:21:15;22.58;56.99
76855;DHT22;66343;44.588;33.450;2023-07-28T10:24:00;22.51;56.58
76855;DHT22;66343;44.588;33.450;2023-07-28T10:26:42;22.64;56.44
76855;DHT22;66343;44.588;33.450;2023-07-28T10:29:14;22.76;58.05
76855;DHT22;66343;44.588;33.450;2023-07-28T10:31:54;22.76;56.28
76855;DHT22;66343;44.588;33.450;2023-07-28T10:34:30;22.76;54.71
76855;DHT22;66343;44.588;33.450;2023-07-28T10:37:00;22.70;56.84
76855;DHT22;66343;44.588;33.450;2023-07-28T10:39:37;22.67;56.39
76855;DHT22;66343;44.588;33.450;2023-07-28T10:42:13;22.77;55.74
76855;DHT22;66343;44.588;33.450;2023-07-28T10:44:52;22.66;55.96
76855;DHT22;66343;44.588;33.450;2023-07-28T10:47:22;22.65;57.86
76855;DHT22;66343;44.588;33.450;2023-07-28T10:49:55;22.76;56.89
76855;DHT22;66343;44.588;33.450;2023-07-28T10:52:28;22.83;55.99
76855;DHT22;66343;44.588;33.450;2023-07-28T10:54:57;22.83;57.39
76855;DHT22;66343;44.588;33.450;2023-07-28T10:57:29;22.78;56.42
76855;DHT22;66343;44.588;33.450;2023-07-28T11:00:00;22.87;54.84
76855;DHT22;66343;44.588;33.450;2023-07-28T11:02:33;22.85;54.73
76855;DHT22;66343;44.588;33.450;2023-07-28T11:05:10;22.80;55.65
76855;DHT22;66343;44.588;33.450;2023-07-28T11:07:43;22.87;54.60
76855;DHT22;66343;44.588;33.450;2023-07-28T11:10:16;22.73;55.19
76855;DHT22;66343;44.588;33.450;2023-07-28T11:12:51;22.66;56.23
76855;DHT22;66343;44.588;33.450;2023-07-28T11:15:28;22.77;56.13
76855;DHT22;66343;44.588;33.450;2023-07-28T11:18:10;22.80;54.35
76855;DHT22;66343;44.588;33.450;2023-07-28T11:20:41;23.03;54.94
76855;DHT22;66343;44.588;33.450;2023-07-28T11:23:13;23.17;53.34
76855;DHT22;66343;44.588;33.450;2023-07-28T11:25:43;23.35;51.29
76855;DHT22;66343;44.588;33.450;2023-07-28T11:28:21;23.26;51.94
76855;DHT22;66343;44.588;33.450;2023-07-28T11:30:51;23.39;53.38
76855;DHT22;66343;44.588;33.450;2023-07-28T11:33:24;23.31;54.01
76855;DHT22;66343;44.588;33.450;2023-07-28T11:35:54;23.37;52.46
76855;DHT22;66343;44.588;33.450;2023-07-28T11:38:26;23.54;52.75
76855;DHT22;66343;44.588;33.450;2023-07-28T11:40:56;23.51;51.30
76855;DHT22;66343;44.588;33.450;2023-07-28T11:43:38;23.43;52.09
76855;DHT22;66343;44.588;33.450;2023-07-28T11:46:32;23.54;52.98
76855;DHT22;66343;44.588;33.450;2023-07-28T11:51:54;23.58;52.88
76855;DHT22;66343;44.588;33.450;2023-07-28T11:54:26;23.73;50.96
76855;DHT22;66343;44.588;33.450;2023-07-28T11:56:57;24.12;51.65
76855;DHT22;66343;44.588;33.450;2023-07-28T11:59:28;24.40;51.22
76855;DHT22;66343;44.588;33.450;2023-07-28T12:02:02;24.41;51.54
76855;DHT22;66343;44.588;33.450;2023-07-28T12:04:40;23.98;49.56
76855;DHT22;66343;44.588;33.450;2023-07-28T12:07:17;23.90;50.06
76855;DHT22;66343;44.588;33.450;2023-07-28T12:12:44;24.03;50.69
76855;DHT22;66343;44.588;33.450;2023-07-28T12:15:24;24.17;51.88
76855;DHT22;66343;44.588;33.450;2023-07-28T12:18:14;23.87;53.35
76855;DHT22;66343;44.588;33.450;2023-07-28T12:20:48;23.96;52.04
76855;DHT22;66343;44.588;33.450;2023-07-28T12:23:25;23.69;51.95
76855;DHT22;66343;44.588;33.450;2023-07-28T12:26:07;24.06;51.44
76855;DHT22;66343;44.588;33.450;2023-07-28T12:28:40;24.41;51.04
76855;DHT22;66343;44.588;33.450;2023-07-28T12:31:17;24.41;50.91
76855;DHT22;66343;44.588;33.450;2023-07-28T12:33:50;24.29;49.77
76855;DHT22;66343;44.588;33.450;2023-07-28T12:36:37;24.00;49.62
76855;DHT22;66343;44.588;33.450;2023-07-28T12:39:10;23.86;50.92
76855;DHT22;66343;44.588;33.450;2023-07-28T12:41:46;23.91;50.82
76855;DHT22;66343;44.588;33.450;2023-07-28T12:44:37;23.87;51.83
76855;DHT22;66343;44.588;33.450;2023-07-28T12:47:10;23.83;52.88
76855;DHT22;66343;44.588;33.450;2023-07-28T12:49:44;24.30;51.72
76855;DHT22;66343;44.588;33.450;2023-07-28T12:52:21;24.32;51.33
76855;DHT22;66343;44.588;33.450;2023-07-28T12:55:16;24.05;51.04
76855;DHT22;66343;44.588;33.450;2023-07-28T12:57:47;24.08;50.73
76855;DHT22;66343;44.588;33.450;2023-07-28T13:00:25;23.96;51.10
76855;DHT22;66343;44.588;33.450;2023-07-28T13:02:57;24.34;51.34
76855;DHT22;66343;44.588;33.450;2023-07-28T13:05:30;24.44;50.20
76855;DHT22;66343;44.588;33.450;2023-07-28T13:08:00;24.50;49.76
76855;DHT22;66343;44.588;33.450;2023-07-28T13:10:33;24.25;49.61
76855;DHT22;66343;44.588;33.450;2023-07-28T13:13:10;24.03;50.81
76855;DHT22;66343;44.588;33.450;2023-07-28T13:15:42;24.44;49.33
76855;DHT22;66343;44.588;33.450;2023-07-28T13:18:12;24.87;48.44
76855;DHT22;66343;44.588;33.450;2023-07-28T13:20:42;24.70;48.37
76855;DHT22;66343;44.588;33.450;2023-07-28T13:23:17;24.86;48.30
76855;DHT22;66343;44.588;33.450;2023-07-28T13:25:46;25.03;48.88
76855;DHT22;66343;44.588;33.450;2023-07-28T13:28:19;25.19;47.96
76855;DHT22;66343;44.588;33.450;2023-07-28T13:30:53;25.44;45.99
76855;DHT22;66343;44.588;33.450;2023-07-28T13:33:25;25.65;46.36
76855;DHT22;66343;44.588;33.450;2023-07-28T13:35:57;25.12;47.72
76855;DHT22;66343;44.588;33.450;2023-07-28T13:38:26;25.21;47.88
76855;DHT22;66343;44.588;33.450;2023-07-28T13:40:56;25.25;47.36
76855;DHT22;66343;44.588;33.450;2023-07-28T13:43:33;25.56;46.00
76855;DHT22;66343;44.588;33.450;2023-07-28T13:46:11;25.56;47.47
76855;DHT22;66343;44.588;33.450;2023-07-28T13:48:47;25.04;48.45
76855;DHT22;66343;44.588;33.450;2023-07-28T13:51:21;24.90;50.31
76855;DHT22;66343;44.588;33.450;2023-07-28T13:54:11;25.51;47.42
76855;DHT22;66343;44.588;33.450;2023-07-28T13:56:45;26.15;45.31
76855;DHT22;66343;44.588;33.450;2023-07-28T13:59:18;26.05;45.08
76855;DHT22;66343;44.588;33.450;2023-07-28T14:01:49;25.62;45.58
76855;DHT22;66343;44.588;33.450;2023-07-28T14:04:22;25.51;46.35
76855;DHT22;66343;44.588;33.450;2023-07-28T14:06:57;25.82;46.72
76855;DHT22;66343;44.588;33.450;2023-07-28T14:09:32;26.06;45.27
76855;DHT22;66343;44.588;33.450;2023-07-28T14:12:10;26.10;44.09
76855;DHT22;66343;44.588;33.450;2023-07-28T14:14:43;26.15;44.16
76855;DHT22;66343;44.588;33.450;2023-07-28T14:17:18;26.06;44.14
76855;DHT22;66343;44.588;33.450;2023-07-28T14:19:55;25.64;46.97
76855;DHT22;66343;44.588;33.450;2023-07-28T14:22:30;26.16;46.13
76855;DHT22;66343;44.588;33.450;2023-07-28T14:25:02;26.49;43.61
76855;DHT22;66343;44.588;33.450;2023-07-28T14:27:32;26.16;43.72
76855;DHT22;66343;44.588;33.450;2023-07-28T14:30:09;25.86;45.11
76855;DHT22;66343;44.588;33.450;2023-07-28T14:32:42;26.18;42.48
76855;DHT22;66343;44.588;33.450;2023-07-28T14:35:12;26.37;41.55
76855;DHT22;66343;44.588;33.450;2023-07-28T14:37:44;26.07;43.48
76855;DHT22;66343;44.588;33.450;2023-07-28T14:40:14;26.07;44.58
76855;DHT22;66343;44.588;33.450;2023-07-28T14:42:48;26.35;44.23
76855;DHT22;66343;44.588;33.450;2023-07-28T14:45:18;26.49;44.33
76855;DHT22;66343;44.588;33.450;2023-07-28T14:47:50;26.65;43.93
76855;DHT22;66343;44.588;33.450;2023-07-28T14:50:24;26.31;44.10
76855;DHT22;66343;44.588;33.450;2023-07-28T14:52:58;26.27;44.03
76855;DHT22;66343;44.588;33.450;2023-07-28T14:55:31;26.32;42.87
76855;DHT22;66343;44.588;33.450;2023-07-28T14:58:01;26.46;43.30
76855;DHT22;66343;44.588;33.450;2023-07-28T15:00:31;26.66;42.73
76855;DHT22;66343;44.588;33.450;2023-07-28T15:03:05;26.81;43.05
76855;DHT22;66343;44.588;33.450;2023-07-28T15:05:39;26.72;43.48
76855;DHT22;66343;44.588;33.450;2023-07-28T15:08:13;26.72;42.76
76855;DHT22;66343;44.588;33.450;2023-07-28T15:10:43;26.60;41.61
76855;DHT22;66343;44.588;33.450;2023-07-28T15:13:18;26.54;43.08
76855;DHT22;66343;44.588;33.450;2023-07-28T15:16:01;26.51;42.06
76855;DHT22;66343;44.588;33.450;2023-07-28T15:18:33;26.34;43.44
76855;DHT22;66343;44.588;33.450;2023-07-28T15:21:06;26.62;42.58
76855;DHT22;66343;44.588;33.450;2023-07-28T15:23:41;26.60;42.39
76855;DHT22;66343;44.588;33.450;2023-07-28T15:26:17;26.85;42.00
76855;DHT22;66343;44.588;33.450;2023-07-28T15:28:52;26.56;40.89
76855;DHT22;66343;44.588;33.450;2023-07-28T15:31:27;26.62;42.52
76855;DHT22;66343;44.588;33.450;2023-07-28T15:33:57;26.61;42.36
76855;DHT22;66343;44.588;33.450;2023-07-28T15:36:32;26.76;42.10
76855;DHT22;66343;44.588;33.450;2023-07-28T15:39:07;26.71;41.04
76855;DHT22;66343;44.588;33.450;2023-07-28T15:41:40;26.67;41.55
76855;DHT22;66343;44.588;33.450;2023-07-28T15:44:13;26.63;42.29
76855;DHT22;66343;44.588;33.450;2023-07-28T15:46:44;26.60;42.05
76855;DHT22;66343;44.588;33.450;2023-07-28T15:49:21;26.57;42.52
76855;DHT22;66343;44.588;33.450;2023-07-28T15:51:56;26.50;42.44
76855;DHT22;66343;44.588;33.450;2023-07-28T15:54:29;26.57;43.51
76855;DHT22;66343;44.588;33.450;2023-07-28T15:57:07;26.62;41.65
76855;DHT22;66343;44.588;33.450;2023-07-28T15:59:38;26.48;42.35
76855;DHT22;66343;44.588;33.450;2023-07-28T16:02:08;26.50;43.03
76855;DHT22;66343;44.588;33.450;2023-07-28T16:04:47;26.45;42.59